sensor_id;sensor_type;location;lat;lon;timestamp;temperature;humidity
71082;SHT31;58740;50.672;18.690;2023-03-26T00:01:38;9.04;68.45
71082;SHT31;58740;50.672;18.690;2023-03-26T00:04:06;9.05;68.44
71082;SHT31;58740;50.672;18.690;2023-03-26T00:06:35;9.06;68.30
71082;SHT31;58740;50.672;18.690;2023-03-26T00:09:07;9.06;68.27
71082;SHT31;58740;50.672;18.690;2023-03-26T00:11:39;9.03;68.16
71082;SHT31;58740;50.672;18.690;2023-03-26T00:14:08;9.01;68.18
71082;SHT31;58740;50.672;18.690;2023-03-26T00:16:40;8.97;68.16
71082;SHT31;58740;50.672;18.690;2023-03-26T00:19:10;8.95;68.30
71082;SHT31;58740;50.672;18.690;2023-03-26T00:21:38;8.93;68.38
71082;SHT31;58740;50.672;18.690;2023-03-26T00:24:09;8.91;68.49
71082;SHT31;58740;50.672;18.690;2023-03-26T00:26:43;8.90;68.61
71082;SHT31;58740;50.672;18.690;2023-03-26T00:29:15;8.88;68.70
71082;SHT31;58740;50.672;18.690;2023-03-26T00:31:43;8.87;68.88
71082;SHT31;58740;50.672;18.690;2023-03-26T00:34:13;8.87;68.98
71082;SHT31;58740;50.672;18.690;2023-03-26T00:36:45;8.87;68.93
71082;SHT31;58740;50.672;18.690;2023-03-26T00:39:13;8.88;69.00
71082;SHT31;58740;50.672;18.690;2023-03-26T00:41:44;8.84;69.10
71082;SHT31;58740;50.672;18.690;2023-03-26T00:44:11;8.82;69.24
71082;SHT31;58740;50.672;18.690;2023-03-26T00:46:39;8.81;69.36
71082;SHT31;58740;50.672;18.690;2023-03-26T00:49:07;8.79;69.39
71082;SHT31;58740;50.672;18.690;2023-03-26T00:51:37;8.76;69.45
71082;SHT31;58740;50.672;18.690;2023-03-26T00:54:06;8.75;69.47
71082;SHT31;58740;50.672;18.690;2023-03-26T00:56:35;8.74;69.49
71082;SHT31;58740;50.672;18.690;2023-03-26T00:59:03;8.72;69.55
71082;SHT31;58740;50.672;18.690;2023-03-26T01:01:31;8.70;69.50
71082;SHT31;58740;50.672;18.690;2023-03-26T01:04:18;8.68;69.60
71082;SHT31;58740;50.672;18.690;2023-03-26T01:06:50;8.67;69.62
71082;SHT31;58740;50.672;18.690;2023-03-26T01:09:18;8.65;69.67
71082;SHT31;58740;50.672;18.690;2023-03-26T01:11:54;8.65;69.62
71082;SHT31;58740;50.672;18.690;2023-03-26T01:14:22;8.64;69.65
71082;SHT31;58740;50.672;18.690;2023-03-26T01:17:03;8.63;69.80
71082;SHT31;58740;50.672;18.690;2023-03-26T01:22:41;8.56;69.96
71082;SHT31;58740;50.672;18.690;2023-03-26T01:25:17;8.56;70.06
71082;SHT31;58740;50.672;18.690;2023-03-26T01:27:52;8.55;70.07
71082;SHT31;58740;50.672;18.690;2023-03-26T01:42:05;8.51;70.24
71082;SHT31;58740;50.672;18.690;2023-03-26T01:44:50;8.54;70.36
71082;SHT31;58740;50.672;18.690;2023-03-26T01:47:36;8.54;70.27
71082;SHT31;58740;50.672;18.690;2023-03-26T01:50:08;8.53;70.52
71082;SHT31;58740;50.672;18.690;2023-03-26T01:52:36;8.49;70.53
71082;SHT31;58740;50.672;18.690;2023-03-26T01:55:05;8.45;70.73
71082;SHT31;58740;50.672;18.690;2023-03-26T01:57:51;8.44;70.81
71082;SHT31;58740;50.672;18.690;2023-03-26T02:00:47;8.41;70.92
71082;SHT31;58740;50.672;18.690;2023-03-26T02:03:49;8.40;71.11
71082;SHT31;58740;50.672;18.690;2023-03-26T02:06:30;8.39;71.17
71082;SHT31;58740;50.672;18.690;2023-03-26T02:09:16;8.39;71.21
71082;SHT31;58740;50.672;18.690;2023-03-26T02:11:50;8.42;71.29
71082;SHT31;58740;50.672;18.690;2023-03-26T02:14:20;8.43;71.36
71082;SHT31;58740;50.672;18.690;2023-03-26T02:16:48;8.44;71.40
71082;SHT31;58740;50.672;18.690;2023-03-26T02:19:17;8.45;71.43
71082;SHT31;58740;50.672;18.690;2023-03-26T02:21:48;8.46;71.44
71082;SHT31;58740;50.672;18.690;2023-03-26T02:24:18;8.48;71.40
71082;SHT31;58740;50.672;18.690;2023-03-26T02:26:46;8.48;71.39
71082;SHT31;58740;50.672;18.690;2023-03-26T02:29:14;8.47;71.43
71082;SHT31;58740;50.672;18.690;2023-03-26T02:31:47;8.48;71.44
71082;SHT31;58740;50.672;18.690;2023-03-26T02:34:15;8.46;71.41
71082;SHT31;58740;50.672;18.690;2023-03-26T02:36:43;8.47;71.46
71082;SHT31;58740;50.672;18.690;2023-03-26T02:39:11;8.48;71.40
71082;SHT31;58740;50.672;18.690;2023-03-26T02:41:40;8.50;71.36
71082;SHT31;58740;50.672;18.690;2023-03-26T02:44:08;8.52;71.41
71082;SHT31;58740;50.672;18.690;2023-03-26T02:46:36;8.56;71.37
71082;SHT31;58740;50.672;18.690;2023-03-26T02:49:03;8.56;71.31
71082;SHT31;58740;50.672;18.690;2023-03-26T02:51:31;8.57;71.32
71082;SHT31;58740;50.672;18.690;2023-03-26T02:54:01;8.58;71.27
71082;SHT31;58740;50.672;18.690;2023-03-26T02:56:29;8.59;71.29
71082;SHT31;58740;50.672;18.690;2023-03-26T02:58:56;8.57;71.31
71082;SHT31;58740;50.672;18.690;2023-03-26T03:01:24;8.56;71.36
71082;SHT31;58740;50.672;18.690;2023-03-26T03:03:52;8.55;71.48
71082;SHT31;58740;50.672;18.690;2023-03-26T03:06:20;8.54;71.40
71082;SHT31;58740;50.672;18.690;2023-03-26T03:08:48;8.55;71.41
71082;SHT31;58740;50.672;18.690;2023-03-26T03:11:19;8.55;71.41
71082;SHT31;58740;50.672;18.690;2023-03-26T03:13:51;8.56;71.44
71082;SHT31;58740;50.672;18.690;2023-03-26T03:16:20;8.55;71.34
71082;SHT31;58740;50.672;18.690;2023-03-26T03:18:48;8.54;71.31
71082;SHT31;58740;50.672;18.690;2023-03-26T03:21:27;8.54;71.30
71082;SHT31;58740;50.672;18.690;2023-03-26T03:23:55;8.55;71.33
71082;SHT31;58740;50.672;18.690;2023-03-26T03:26:27;8.55;71.34
71082;SHT31;58740;50.672;18.690;2023-03-26T03:28:56;8.55;71.28
71082;SHT31;58740;50.672;18.690;2023-03-26T03:31:25;8.55;71.26
71082;SHT31;58740;50.672;18.690;2023-03-26T03:33:54;8.54;71.36
71082;SHT31;58740;50.672;18.690;2023-03-26T03:36:23;8.53;71.39
71082;SHT31;58740;50.672;18.690;2023-03-26T03:38:54;8.53;71.33
71082;SHT31;58740;50.672;18.690;2023-03-26T03:41:22;8.54;71.32
71082;SHT31;58740;50.672;18.690;2023-03-26T03:43:50;8.55;71.35
71082;SHT31;58740;50.672;18.690;2023-03-26T03:46:18;8.55;71.31
71082;SHT31;58740;50.672;18.690;2023-03-26T03:48:45;8.55;71.38
71082;SHT31;58740;50.672;18.690;2023-03-26T03:51:16;8.56;71.44
71082;SHT31;58740;50.672;18.690;2023-03-26T03:53:45;8.56;71.49
71082;SHT31;58740;50.672;18.690;2023-03-26T03:56:14;8.55;71.60
71082;SHT31;58740;50.672;18.690;2023-03-26T03:58:45;8.52;71.73
71082;SHT31;58740;50.672;18.690;2023-03-26T04:01:13;8.51;71.80
71082;SHT31;58740;50.672;18.690;2023-03-26T04:03:43;8.49;71.88
71082;SHT31;58740;50.672;18.690;2023-03-26T04:06:13;8.49;71.90
71082;SHT31;58740;50.672;18.690;2023-03-26T04:08:45;8.50;72.06
71082;SHT31;58740;50.672;18.690;2023-03-26T04:11:13;8.51;72.10
71082;SHT31;58740;50.672;18.690;2023-03-26T04:13:41;8.52;72.34
71082;SHT31;58740;50.672;18.690;2023-03-26T04:16:10;8.51;72.58
71082;SHT31;58740;50.672;18.690;2023-03-26T04:18:38;8.47;72.76
71082;SHT31;58740;50.672;18.690;2023-03-26T04:21:06;8.45;72.83
71082;SHT31;58740;50.672;18.690;2023-03-26T04:23:34;8.43;73.02
71082;SHT31;58740;50.672;18.690;2023-03-26T04:26:02;8.40;73.13
71082;SHT31;58740;50.672;18.690;2023-03-26T04:28:41;8.39;73.21
71082;SHT31;58740;50.672;18.690;2023-03-26T04:31:13;8.38;73.30
71082;SHT31;58740;50.672;18.690;2023-03-26T04:33:45;8.38;73.40
71082;SHT31;58740;50.672;18.690;2023-03-26T04:36:14;8.38;73.43
71082;SHT31;58740;50.672;18.690;2023-03-26T04:38:44;8.39;73.49
71082;SHT31;58740;50.672;18.690;2023-03-26T04:41:18;8.41;73.56
71082;SHT31;58740;50.672;18.690;2023-03-26T04:43:47;8.38;73.63
71082;SHT31;58740;50.672;18.690;2023-03-26T04:46:17;8.38;73.70
71082;SHT31;58740;50.672;18.690;2023-03-26T04:48:49;8.37;73.82
71082;SHT31;58740;50.672;18.690;2023-03-26T04:51:19;8.35;73.89
71082;SHT31;58740;50.672;18.690;2023-03-26T04:53:53;8.34;73.98
71082;SHT31;58740;50.672;18.690;2023-03-26T04:59:28;8.34;74.11
71082;SHT31;58740;50.672;18.690;2023-03-26T05:02:03;8.34;74.13
71082;SHT31;58740;50.672;18.690;2023-03-26T05:04:32;8.34;74.22
71082;SHT31;58740;50.672;18.690;2023-03-26T05:07:03;8.35;74.21
71082;SHT31;58740;50.672;18.690;2023-03-26T05:09:30;8.35;74.20
71082;SHT31;58740;50.672;18.690;2023-03-26T05:11:58;8.36;74.24
71082;SHT31;58740;50.672;18.690;2023-03-26T05:14:26;8.37;74.19
71082;SHT31;58740;50.672;18.690;2023-03-26T05:16:53;8.35;74.16
71082;SHT31;58740;50.672;18.690;2023-03-26T05:19:22;8.32;74.08
71082;SHT31;58740;50.672;18.690;2023-03-26T05:21:49;8.27;74.05
71082;SHT31;58740;50.672;18.690;2023-03-26T05:24:17;8.24;74.10
71082;SHT31;58740;50.672;18.690;2023-03-26T05:26:46;8.24;74.17
71082;SHT31;58740;50.672;18.690;2023-03-26T05:29:13;8.26;74.14
71082;SHT31;58740;50.672;18.690;2023-03-26T05:31:44;8.28;74.11
71082;SHT31;58740;50.672;18.690;2023-03-26T05:34:11;8.32;74.02
71082;SHT31;58740;50.672;18.690;2023-03-26T05:36:39;8.33;73.94
71082;SHT31;58740;50.672;18.690;2023-03-26T05:39:08;8.34;73.83
71082;SHT31;58740;50.672;18.690;2023-03-26T05:41:36;8.34;73.77
71082;SHT31;58740;50.672;18.690;2023-03-26T05:44:04;8.34;73.69
71082;SHT31;58740;50.672;18.690;2023-03-26T05:46:32;8.37;73.62
71082;SHT31;58740;50.672;18.690;2023-03-26T05:49:00;8.40;73.63
71082;SHT31;58740;50.672;18.690;2023-03-26T05:51:27;8.48;73.53
71082;SHT31;58740;50.672;18.690;2023-03-26T05:53:55;8.56;73.50
71082;SHT31;58740;50.672;18.690;2023-03-26T05:56:23;8.69;73.39
71082;SHT31;58740;50.672;18.690;2023-03-26T05:58:50;8.81;73.22
71082;SHT31;58740;50.672;18.690;2023-03-26T06:01:18;8.93;72.95
71082;SHT31;58740;50.672;18.690;2023-03-26T06:03:47;8.98;72.50
71082;SHT31;58740;50.672;18.690;2023-03-26T06:06:15;9.00;72.32
71082;SHT31;58740;50.672;18.690;2023-03-26T06:08:47;8.99;72.22
71082;SHT31;58740;50.672;18.690;2023-03-26T06:11:29;8.95;72.06
71082;SHT31;58740;50.672;18.690;2023-03-26T06:13:59;8.92;72.06
71082;SHT31;58740;50.672;18.690;2023-03-26T06:16:27;8.89;71.97
71082;SHT31;58740;50.672;18.690;2023-03-26T06:18:55;8.86;71.91
71082;SHT31;58740;50.672;18.690;2023-03-26T06:21:24;8.84;71.97
71082;SHT31;58740;50.672;18.690;2023-03-26T06:23:53;8.84;72.00
71082;SHT31;58740;50.672;18.690;2023-03-26T06:26:22;8.87;72.07
71082;SHT31;58740;50.672;18.690;2023-03-26T06:28:50;8.90;72.00
71082;SHT31;58740;50.672;18.690;2023-03-26T06:31:18;8.90;71.83
71082;SHT31;58740;50.672;18.690;2023-03-26T06:33:45;8.88;71.82
71082;SHT31;58740;50.672;18.690;2023-03-26T06:36:15;8.87;71.88
71082;SHT31;58740;50.672;18.690;2023-03-26T06:38:42;8.85;71.78
71082;SHT31;58740;50.672;18.690;2023-03-26T06:41:10;8.82;71.76
71082;SHT31;58740;50.672;18.690;2023-03-26T06:43:38;8.77;71.74
71082;SHT31;58740;50.672;18.690;2023-03-26T06:46:06;8.77;71.83
71082;SHT31;58740;50.672;18.690;2023-03-26T06:48:34;8.74;72.02
71082;SHT31;58740;50.672;18.690;2023-03-26T06:51:02;8.69;72.44
71082;SHT31;58740;50.672;18.690;2023-03-26T06:53:30;8.63;72.99
71082;SHT31;58740;50.672;18.690;2023-03-26T06:55:58;8.61;73.36
71082;SHT31;58740;50.672;18.690;2023-03-26T06:58:26;8.60;73.65
71082;SHT31;58740;50.672;18.690;2023-03-26T07:00:54;8.58;73.77
71082;SHT31;58740;50.672;18.690;2023-03-26T07:03:23;8.59;73.97
71082;SHT31;58740;50.672;18.690;2023-03-26T07:05:51;8.60;74.02
71082;SHT31;58740;50.672;18.690;2023-03-26T07:08:19;8.60;74.09
71082;SHT31;58740;50.672;18.690;2023-03-26T07:10:47;8.60;74.08
71082;SHT31;58740;50.672;18.690;2023-03-26T07:13:15;8.63;74.11
71082;SHT31;58740;50.672;18.690;2023-03-26T07:15:42;8.68;74.18
71082;SHT31;58740;50.672;18.690;2023-03-26T07:18:10;8.73;74.23
71082;SHT31;58740;50.672;18.690;2023-03-26T07:20:38;8.78;73.99
71082;SHT31;58740;50.672;18.690;2023-03-26T07:23:06;8.85;74.01
71082;SHT31;58740;50.672;18.690;2023-03-26T07:25:37;8.92;73.91
71082;SHT31;58740;50.672;18.690;2023-03-26T07:28:12;8.97;73.76
71082;SHT31;58740;50.672;18.690;2023-03-26T07:37:02;9.16;73.89
71082;SHT31;58740;50.672;18.690;2023-03-26T07:39:51;9.23;73.68
71082;SHT31;58740;50.672;18.690;2023-03-26T07:42:32;9.24;73.56
71082;SHT31;58740;50.672;18.690;2023-03-26T07:48:25;9.29;73.39
71082;SHT31;58740;50.672;18.690;2023-03-26T07:51:08;9.32;73.38
71082;SHT31;58740;50.672;18.690;2023-03-26T07:53:37;9.38;73.41
71082;SHT31;58740;50.672;18.690;2023-03-26T07:56:11;9.40;73.27
71082;SHT31;58740;50.672;18.690;2023-03-26T08:04:55;9.61;73.05
71082;SHT31;58740;50.672;18.690;2023-03-26T08:07:50;9.63;72.87
71082;SHT31;58740;50.672;18.690;2023-03-26T08:13:52;9.59;72.50
71082;SHT31;58740;50.672;18.690;2023-03-26T08:17:04;9.65;72.54
71082;SHT31;58740;50.672;18.690;2023-03-26T08:20:29;9.76;72.51
71082;SHT31;58740;50.672;18.690;2023-03-26T08:25:57;9.90;72.17
71082;SHT31;58740;50.672;18.690;2023-03-26T08:28:48;9.92;71.66
71082;SHT31;58740;50.672;18.690;2023-03-26T08:31:32;9.93;71.66
71082;SHT31;58740;50.672;18.690;2023-03-26T08:34:07;9.96;71.50
71082;SHT31;58740;50.672;18.690;2023-03-26T08:36:38;9.97;71.22
71082;SHT31;58740;50.672;18.690;2023-03-26T08:39:06;10.01;71.23
71082;SHT31;58740;50.672;18.690;2023-03-26T08:41:47;10.03;70.96
71082;SHT31;58740;50.672;18.690;2023-03-26T08:45:02;10.09;71.06
71082;SHT31;58740;50.672;18.690;2023-03-26T08:50:50;10.19;70.50
71082;SHT31;58740;50.672;18.690;2023-03-26T08:54:13;10.21;69.74
71082;SHT31;58740;50.672;18.690;2023-03-26T09:03:35;10.44;69.42
71082;SHT31;58740;50.672;18.690;2023-03-26T09:28:16;10.41;66.35
71082;SHT31;58740;50.672;18.690;2023-03-26T09:41:09;10.60;66.36
71082;SHT31;58740;50.672;18.690;2023-03-26T09:46:36;10.90;66.70
71082;SHT31;58740;50.672;18.690;2023-03-26T09:49:31;10.98;64.93
71082;SHT31;58740;50.672;18.690;2023-03-26T09:52:23;10.98;64.62
71082;SHT31;58740;50.672;18.690;2023-03-26T10:10:03;10.75;63.19
71082;SHT31;58740;50.672;18.690;2023-03-26T10:12:49;10.75;63.19
71082;SHT31;58740;50.672;18.690;2023-03-26T10:15:53;10.76;62.87
71082;SHT31;58740;50.672;18.690;2023-03-26T10:25:21;10.87;62.59
71082;SHT31;58740;50.672;18.690;2023-03-26T10:27:58;10.87;61.54
71082;SHT31;58740;50.672;18.690;2023-03-26T10:31:13;10.82;61.14
71082;SHT31;58740;50.672;18.690;2023-03-26T10:33:59;10.82;61.75
71082;SHT31;58740;50.672;18.690;2023-03-26T10:37:00;10.84;62.20
71082;SHT31;58740;50.672;18.690;2023-03-26T10:48:48;10.81;61.89
71082;SHT31;58740;50.672;18.690;2023-03-26T10:52:22;10.76;63.15
71082;SHT31;58740;50.672;18.690;2023-03-26T10:57:59;10.56;65.01
71082;SHT31;58740;50.672;18.690;2023-03-26T11:00:59;10.52;65.57
71082;SHT31;58740;50.672;18.690;2023-03-26T11:12:11;10.49;67.26
71082;SHT31;58740;50.672;18.690;2023-03-26T11:26:10;10.33;67.84
71082;SHT31;58740;50.672;18.690;2023-03-26T11:34:59;10.46;68.35
71082;SHT31;58740;50.672;18.690;2023-03-26T11:37:52;10.59;68.74
71082;SHT31;58740;50.672;18.690;2023-03-26T11:40:24;10.67;68.46
71082;SHT31;58740;50.672;18.690;2023-03-26T11:43:03;10.73;68.29
71082;SHT31;58740;50.672;18.690;2023-03-26T11:45:38;10.76;67.38
71082;SHT31;58740;50.672;18.690;2023-03-26T11:50:52;10.82;67.45
71082;SHT31;58740;50.672;18.690;2023-03-26T11:53:30;10.85;67.36
71082;SHT31;58740;50.672;18.690;2023-03-26T11:56:09;10.93;67.58
71082;SHT31;58740;50.672;18.690;2023-03-26T11:59:04;11.04;67.40
71082;SHT31;58740;50.672;18.690;2023-03-26T12:01:46;11.12;67.33
71082;SHT31;58740;50.672;18.690;2023-03-26T12:04:25;11.18;67.17
71082;SHT31;58740;50.672;18.690;2023-03-26T12:10:00;11.30;65.92
71082;SHT31;58740;50.672;18.690;2023-03-26T12:12:46;11.40;65.93
71082;SHT31;58740;50.672;18.690;2023-03-26T12:15:15;11.48;65.56
71082;SHT31;58740;50.672;18.690;2023-03-26T12:17:51;11.52;64.61
71082;SHT31;58740;50.672;18.690;2023-03-26T12:22:52;11.54;64.03
71082;SHT31;58740;50.672;18.690;2023-03-26T12:25:29;11.51;63.49
71082;SHT31;58740;50.672;18.690;2023-03-26T12:30:40;11.39;63.59
71082;SHT31;58740;50.672;18.690;2023-03-26T12:33:29;11.31;62.97
71082;SHT31;58740;50.672;18.690;2023-03-26T12:36:19;11.28;62.40
71082;SHT31;58740;50.672;18.690;2023-03-26T12:38:57;11.23;62.71
71082;SHT31;58740;50.672;18.690;2023-03-26T12:41:46;11.21;63.85
71082;SHT31;58740;50.672;18.690;2023-03-26T12:44:44;11.23;64.52
71082;SHT31;58740;50.672;18.690;2023-03-26T12:47:29;11.20;64.56
71082;SHT31;58740;50.672;18.690;2023-03-26T12:50:20;11.19;64.50
71082;SHT31;58740;50.672;18.690;2023-03-26T12:56:00;11.09;65.25
71082;SHT31;58740;50.672;18.690;2023-03-26T13:07:20;11.00;65.93
71082;SHT31;58740;50.672;18.690;2023-03-26T13:16:47;10.95;66.31
71082;SHT31;58740;50.672;18.690;2023-03-26T13:19:36;10.95;66.60
71082;SHT31;58740;50.672;18.690;2023-03-26T13:25:23;11.03;65.47
71082;SHT31;58740;50.672;18.690;2023-03-26T13:28:23;11.15;65.09
71082;SHT31;58740;50.672;18.690;2023-03-26T13:33:45;11.30;64.52
71082;SHT31;58740;50.672;18.690;2023-03-26T13:39:17;11.39;63.05
71082;SHT31;58740;50.672;18.690;2023-03-26T13:47:47;11.38;63.69
71082;SHT31;58740;50.672;18.690;2023-03-26T13:50:39;11.37;63.78
71082;SHT31;58740;50.672;18.690;2023-03-26T13:53:14;11.37;64.33
71082;SHT31;58740;50.672;18.690;2023-03-26T13:55:51;11.36;64.07
71082;SHT31;58740;50.672;18.690;2023-03-26T14:01:18;11.33;63.66
71082;SHT31;58740;50.672;18.690;2023-03-26T14:04:13;11.31;63.64
71082;SHT31;58740;50.672;18.690;2023-03-26T14:09:31;11.37;63.74
71082;SHT31;58740;50.672;18.690;2023-03-26T14:27:23;11.44;62.19
71082;SHT31;58740;50.672;18.690;2023-03-26T14:30:13;11.44;61.57
71082;SHT31;58740;50.672;18.690;2023-03-26T14:36:26;11.46;61.67
71082;SHT31;58740;50.672;18.690;2023-03-26T14:42:23;11.46;61.11
71082;SHT31;58740;50.672;18.690;2023-03-26T14:54:22;11.55;60.18
71082;SHT31;58740;50.672;18.690;2023-03-26T15:03:06;11.48;63.40
71082;SHT31;58740;50.672;18.690;2023-03-26T15:27:41;11.33;66.05
71082;SHT31;58740;50.672;18.690;2023-03-26T15:43:14;11.13;65.44
71082;SHT31;58740;50.672;18.690;2023-03-26T15:45:49;11.07;65.48
71082;SHT31;58740;50.672;18.690;2023-03-26T15:48:34;11.02;65.33
71082;SHT31;58740;50.672;18.690;2023-03-26T15:51:23;10.96;65.38
71082;SHT31;58740;50.672;18.690;2023-03-26T15:54:28;10.90;65.69
71082;SHT31;58740;50.672;18.690;2023-03-26T15:57:20;10.87;65.87
71082;SHT31;58740;50.672;18.690;2023-03-26T16:00:00;10.85;66.09
71082;SHT31;58740;50.672;18.690;2023-03-26T16:02:56;10.84;66.19
71082;SHT31;58740;50.672;18.690;2023-03-26T16:08:42;10.88;66.13
71082;SHT31;58740;50.672;18.690;2023-03-26T16:11:48;10.88;66.26
71082;SHT31;58740;50.672;18.690;2023-03-26T16:14:42;10.90;66.36
71082;SHT31;58740;50.672;18.690;2023-03-26T16:17:18;10.89;66.29
71082;SHT31;58740;50.672;18.690;2023-03-26T16:22:59;10.87;66.52
71082;SHT31;58740;50.672;18.690;2023-03-26T16:25:31;10.85;66.34
71082;SHT31;58740;50.672;18.690;2023-03-26T16:28:25;10.84;66.36
71082;SHT31;58740;50.672;18.690;2023-03-26T16:31:15;10.82;66.56
71082;SHT31;58740;50.672;18.690;2023-03-26T16:36:36;10.76;66.74
71082;SHT31;58740;50.672;18.690;2023-03-26T16:39:12;10.72;66.84
71082;SHT31;58740;50.672;18.690;2023-03-26T16:41:51;10.69;66.95
71082;SHT31;58740;50.672;18.690;2023-03-26T16:48:56;10.65;66.92
71082;SHT31;58740;50.672;18.690;2023-03-26T16:51:10;10.63;67.34
71082;SHT31;58740;50.672;18.690;2023-03-26T17:00:28;10.50;67.29
71082;SHT31;58740;50.672;18.690;2023-03-26T17:15:22;10.22;68.69
71082;SHT31;58740;50.672;18.690;2023-03-26T17:18:21;10.17;68.94
71082;SHT31;58740;50.672;18.690;2023-03-26T17:21:04;10.12;69.11
71082;SHT31;58740;50.672;18.690;2023-03-26T17:26:27;10.00;69.27
71082;SHT31;58740;50.672;18.690;2023-03-26T17:29:22;9.97;69.26
71082;SHT31;58740;50.672;18.690;2023-03-26T17:32:16;9.91;69.47
71082;SHT31;58740;50.672;18.690;2023-03-26T17:42:31;9.75;70.45
71082;SHT31;58740;50.672;18.690;2023-03-26T17:48:00;9.78;70.80
71082;SHT31;58740;50.672;18.690;2023-03-26T17:50:59;9.79;70.68
71082;SHT31;58740;50.672;18.690;2023-03-26T17:53:44;9.83;70.52
71082;SHT31;58740;50.672;18.690;2023-03-26T17:56:14;9.83;70.82
71082;SHT31;58740;50.672;18.690;2023-03-26T17:58:52;9.84;70.89
71082;SHT31;58740;50.672;18.690;2023-03-26T18:01:39;9.85;70.69
71082;SHT31;58740;50.672;18.690;2023-03-26T18:04:14;9.83;70.40
71082;SHT31;58740;50.672;18.690;2023-03-26T18:16:17;9.84;70.85
71082;SHT31;58740;50.672;18.690;2023-03-26T18:18:53;9.86;71.01
71082;SHT31;58740;50.672;18.690;2023-03-26T18:21:33;9.88;71.30
71082;SHT31;58740;50.672;18.690;2023-03-26T18:24:07;9.86;71.18
71082;SHT31;58740;50.672;18.690;2023-03-26T18:26:55;9.85;71.18
71082;SHT31;58740;50.672;18.690;2023-03-26T18:29:29;9.85;71.35
71082;SHT31;58740;50.672;18.690;2023-03-26T18:32:15;9.83;71.93
71082;SHT31;58740;50.672;18.690;2023-03-26T18:34:57;9.81;71.53
71082;SHT31;58740;50.672;18.690;2023-03-26T18:37:45;9.82;71.64
71082;SHT31;58740;50.672;18.690;2023-03-26T18:40:19;9.81;71.70
71082;SHT31;58740;50.672;18.690;2023-03-26T18:42:51;9.79;71.47
71082;SHT31;58740;50.672;18.690;2023-03-26T18:45:33;9.80;71.75
71082;SHT31;58740;50.672;18.690;2023-03-26T18:48:05;9.80;71.99
71082;SHT31;58740;50.672;18.690;2023-03-26T18:50:44;9.79;72.04
71082;SHT31;58740;50.672;18.690;2023-03-26T18:53:18;9.79;72.16
71082;SHT31;58740;50.672;18.690;2023-03-26T18:55:51;9.78;72.44
71082;SHT31;58740;50.672;18.690;2023-03-26T18:58:26;9.76;72.80
71082;SHT31;58740;50.672;18.690;2023-03-26T19:01:07;9.74;72.90
71082;SHT31;58740;50.672;18.690;2023-03-26T19:03:50;9.76;72.66
71082;SHT31;58740;50.672;18.690;2023-03-26T19:06:20;9.78;72.60
71082;SHT31;58740;50.672;18.690;2023-03-26T19:08:49;9.81;72.61
71082;SHT31;58740;50.672;18.690;2023-03-26T19:11:19;9.82;72.66
71082;SHT31;58740;50.672;18.690;2023-03-26T19:13:49;9.82;72.81
71082;SHT31;58740;50.672;18.690;2023-03-26T19:16:30;9.79;72.89
71082;SHT31;58740;50.672;18.690;2023-03-26T19:19:03;9.75;73.05
71082;SHT31;58740;50.672;18.690;2023-03-26T19:21:33;9.70;73.27
71082;SHT31;58740;50.672;18.690;2023-03-26T19:24:02;9.67;73.39
71082;SHT31;58740;50.672;18.690;2023-03-26T19:26:31;9.64;73.57
71082;SHT31;58740;50.672;18.690;2023-03-26T19:29:00;9.61;73.76
71082;SHT31;58740;50.672;18.690;2023-03-26T19:31:36;9.61;73.87
71082;SHT31;58740;50.672;18.690;2023-03-26T19:36:53;9.54;74.05
71082;SHT31;58740;50.672;18.690;2023-03-26T19:39:39;9.54;74.35
71082;SHT31;58740;50.672;18.690;2023-03-26T19:42:16;9.52;74.36
71082;SHT31;58740;50.672;18.690;2023-03-26T19:44:53;9.53;74.52
71082;SHT31;58740;50.672;18.690;2023-03-26T19:47:24;9.52;74.74
71082;SHT31;58740;50.672;18.690;2023-03-26T19:53:08;9.51;75.03
71082;SHT31;58740;50.672;18.690;2023-03-26T19:58:31;9.50;75.01
71082;SHT31;58740;50.672;18.690;2023-03-26T20:00:59;9.50;74.93
71082;SHT31;58740;50.672;18.690;2023-03-26T20:03:34;9.44;74.78
71082;SHT31;58740;50.672;18.690;2023-03-26T20:06:16;9.41;74.80
71082;SHT31;58740;50.672;18.690;2023-03-26T20:09:00;9.33;74.89
71082;SHT31;58740;50.672;18.690;2023-03-26T20:11:30;9.28;74.98
71082;SHT31;58740;50.672;18.690;2023-03-26T20:14:10;9.23;74.97
71082;SHT31;58740;50.672;18.690;2023-03-26T20:16:41;9.21;75.05
71082;SHT31;58740;50.672;18.690;2023-03-26T20:19:12;9.17;75.12
71082;SHT31;58740;50.672;18.690;2023-03-26T20:21:42;9.16;75.17
71082;SHT31;58740;50.672;18.690;2023-03-26T20:24:14;9.15;75.20
71082;SHT31;58740;50.672;18.690;2023-03-26T20:26:45;9.12;75.20
71082;SHT31;58740;50.672;18.690;2023-03-26T20:29:13;9.11;75.21
71082;SHT31;58740;50.672;18.690;2023-03-26T20:31:42;9.10;75.22
71082;SHT31;58740;50.672;18.690;2023-03-26T20:34:14;9.06;75.31
71082;SHT31;58740;50.672;18.690;2023-03-26T20:36:50;9.05;75.39
71082;SHT31;58740;50.672;18.690;2023-03-26T20:39:24;9.03;75.41
71082;SHT31;58740;50.672;18.690;2023-03-26T20:41:53;9.04;75.42
71082;SHT31;58740;50.672;18.690;2023-03-26T20:44:21;9.03;75.42
71082;SHT31;58740;50.672;18.690;2023-03-26T20:46:49;9.03;75.49
71082;SHT31;58740;50.672;18.690;2023-03-26T20:49:17;9.03;75.43
71082;SHT31;58740;50.672;18.690;2023-03-26T20:51:48;9.02;75.41
71082;SHT31;58740;50.672;18.690;2023-03-26T20:54:20;8.97;75.48
71082;SHT31;58740;50.672;18.690;2023-03-26T20:56:51;8.93;75.59
71082;SHT31;58740;50.672;18.690;2023-03-26T20:59:21;8.94;75.65
71082;SHT31;58740;50.672;18.690;2023-03-26T21:01:54;8.96;75.63
71082;SHT31;58740;50.672;18.690;2023-03-26T21:04:24;9.00;75.64
71082;SHT31;58740;50.672;18.690;2023-03-26T21:06:53;9.01;75.66
71082;SHT31;58740;50.672;18.690;2023-03-26T21:09:37;9.00;75.68
71082;SHT31;58740;50.672;18.690;2023-03-26T21:12:20;8.99;75.74
71082;SHT31;58740;50.672;18.690;2023-03-26T21:14:56;8.98;75.72
71082;SHT31;58740;50.672;18.690;2023-03-26T21:17:24;8.96;75.82
71082;SHT31;58740;50.672;18.690;2023-03-26T21:19:53;8.96;75.83
71082;SHT31;58740;50.672;18.690;2023-03-26T21:22:24;8.94;75.87
71082;SHT31;58740;50.672;18.690;2023-03-26T21:28:37;8.95;76.00
71082;SHT31;58740;50.672;18.690;2023-03-26T21:31:17;8.97;75.99
71082;SHT31;58740;50.672;18.690;2023-03-26T21:33:49;8.98;75.73
71082;SHT31;58740;50.672;18.690;2023-03-26T21:36:18;8.99;75.82
71082;SHT31;58740;50.672;18.690;2023-03-26T21:38:46;9.01;75.73
71082;SHT31;58740;50.672;18.690;2023-03-26T21:43:50;8.92;75.82
71082;SHT31;58740;50.672;18.690;2023-03-26T21:46:18;8.92;75.81
71082;SHT31;58740;50.672;18.690;2023-03-26T21:48:46;8.94;75.80
71082;SHT31;58740;50.672;18.690;2023-03-26T21:51:14;8.94;75.80
71082;SHT31;58740;50.672;18.690;2023-03-26T21:53:44;8.95;75.80
71082;SHT31;58740;50.672;18.690;2023-03-26T22:05:16;8.84;75.93